Packwood, Washington
Current Conditions -  °F | °C
As of 9:58 AM on Wednesday 26 Nov 2014 (Local Time) from KTCM Reporting Station
Overcast Overcast  
Wind Chill: 54°   Ceiling: 3900
Heat Index: 54°   Visibility: 10mi
Dew Point: 54°   Wind: 2mph
Humidity: 100%   Direction: 190°S
Pressure: 30.13"   Gusts: NA
Location:  46.61°N, 121.67°W
Report Text: KTCM 261758Z AUTO 19002KT 10SM BKN039 OVC055 12/12 A3013 RMK AO2 SLP207 60002 T01230123 10128 20101 58008 $
Loading
Personal Weather Stations






























Interactive Weather Map New forecast layout! Learn more

10-Day Weather Forecast

Advertisements
Track Severe Weather on mobile